createdAt,value
2019-06-15T00:02:57.347Z,77.08
2019-06-15T00:07:04.286Z,77.38
2019-06-15T00:11:11.073Z,77.00
2019-06-15T00:15:18.169Z,77.28
2019-06-15T00:19:25.011Z,77.19
2019-06-15T00:23:31.983Z,76.65
2019-06-15T00:27:38.856Z,76.48
2019-06-15T00:31:46.164Z,76.12
2019-06-15T00:35:55.062Z,76.11
2019-06-15T00:40:03.777Z,76.14
2019-06-15T00:44:10.828Z,75.65
2019-06-15T00:48:17.850Z,75.27
2019-06-15T00:52:24.638Z,74.68
2019-06-15T00:56:31.486Z,75.16
2019-06-15T01:00:38.576Z,75.05
2019-06-15T01:04:45.466Z,75.92
2019-06-15T01:08:52.420Z,76.53
2019-06-15T01:12:59.474Z,77.27
2019-06-15T01:17:06.308Z,78.34
2019-06-15T01:21:13.450Z,79.08
2019-06-15T01:25:21.957Z,79.77
2019-06-15T01:29:28.870Z,80.08
2019-06-15T01:33:35.750Z,80.28
2019-06-15T01:37:46.479Z,80.47
2019-06-15T01:41:53.269Z,80.45
2019-06-15T01:45:59.986Z,80.54
2019-06-15T01:50:07.016Z,80.79
2019-06-15T01:54:13.818Z,80.94
2019-06-15T01:58:20.544Z,81.17
2019-06-15T02:02:27.271Z,82.15
2019-06-15T02:06:34.261Z,82.11
2019-06-15T02:10:41.024Z,82.13
2019-06-15T02:14:48.034Z,82.71
2019-06-15T02:18:54.906Z,82.74
2019-06-15T02:23:02.065Z,83.09
2019-06-15T02:27:08.850Z,83.64
2019-06-15T02:31:15.711Z,83.59
2019-06-15T02:35:22.706Z,83.77
2019-06-15T02:39:29.656Z,84.04
2019-06-15T02:43:36.614Z,83.79
2019-06-15T02:47:43.469Z,83.54
2019-06-15T02:51:52.581Z,82.54
2019-06-15T02:56:02.070Z,82.45
2019-06-15T03:00:11.209Z,83.21
2019-06-15T03:04:39.080Z,83.26
2019-06-15T03:08:49.732Z,83.46
2019-06-15T03:12:57.348Z,83.58
2019-06-15T03:17:04.308Z,83.41
2019-06-15T03:21:11.177Z,83.24
2019-06-15T03:25:18.205Z,82.75
2019-06-15T03:29:25.128Z,83.64
2019-06-15T03:33:32.286Z,83.24
2019-06-15T03:37:40.856Z,83.68
2019-06-15T03:41:47.768Z,82.72
2019-06-15T03:45:54.932Z,82.89
2019-06-15T03:50:02.129Z,82.41
2019-06-15T03:54:09.292Z,82.27
2019-06-15T03:58:18.806Z,83.22
2019-06-15T04:02:28.726Z,83.07
2019-06-15T04:06:35.792Z,85.28
2019-06-15T04:10:45.185Z,85.00
2019-06-15T04:14:52.585Z,85.15
2019-06-15T04:38:35.754Z,84.03
2019-06-15T05:42:16.052Z,75.44
2019-06-15T05:46:46.981Z,75.28
2019-06-15T06:07:45.205Z,74.50
2019-06-15T06:11:52.005Z,73.83
2019-06-15T06:16:00.066Z,74.44
2019-06-15T06:20:08.372Z,74.71
2019-06-15T06:24:16.317Z,73.92
2019-06-15T06:28:37.957Z,74.42
2019-06-15T06:32:50.657Z,74.48
2019-06-15T06:36:59.567Z,73.40
2019-06-15T06:41:39.048Z,72.80
2019-06-15T06:46:16.422Z,72.00
2019-06-15T06:50:31.083Z,71.25
2019-06-15T06:55:00.642Z,70.50
2019-06-15T06:59:20.274Z,69.11
2019-06-15T07:04:00.204Z,68.46
2019-06-15T07:08:29.257Z,66.85
2019-06-15T07:12:45.313Z,66.18
2019-06-15T07:27:39.019Z,63.32
2019-06-15T07:31:49.356Z,62.20
2019-06-15T07:36:06.340Z,61.13
2019-06-15T07:40:17.756Z,61.52
2019-06-15T07:44:30.322Z,61.63
2019-06-15T07:48:52.224Z,60.98
2019-06-15T07:53:24.803Z,60.93
2019-06-15T07:58:24.037Z,60.78
2019-06-15T08:03:16.199Z,60.49
2019-06-15T08:08:11.910Z,59.90
2019-06-15T08:12:21.358Z,59.39
2019-06-15T08:16:55.061Z,59.53
2019-06-15T08:21:02.054Z,59.56
2019-06-15T08:25:10.114Z,58.45
2019-06-15T08:29:25.824Z,56.34
2019-06-15T08:33:37.436Z,56.28
2019-06-15T08:37:50.240Z,55.73
2019-06-15T08:42:07.557Z,54.57
2019-06-15T08:46:33.946Z,55.38
2019-06-15T08:50:45.792Z,55.96
2019-06-15T08:54:58.521Z,55.80
2019-06-15T08:59:05.921Z,54.80
2019-06-15T09:03:17.603Z,54.50
2019-06-15T09:07:24.821Z,53.61
2019-06-15T09:11:31.929Z,55.09
2019-06-15T09:15:52.648Z,53.63
2019-06-15T09:19:59.439Z,53.78
2019-06-15T09:24:06.178Z,50.40
2019-06-15T09:28:13.032Z,49.90
2019-06-15T09:32:19.915Z,50.47
2019-06-15T09:36:26.640Z,49.20
2019-06-15T09:40:33.615Z,47.37
2019-06-15T09:44:40.511Z,45.23
2019-06-15T09:48:49.832Z,47.52
2019-06-15T09:52:57.936Z,46.98
2019-06-15T09:57:05.196Z,46.57
2019-06-15T10:01:15.215Z,47.28
2019-06-15T10:05:21.962Z,49.34
2019-06-15T10:09:29.098Z,50.53
2019-06-15T10:13:35.843Z,51.05
2019-06-15T10:17:42.738Z,51.33
2019-06-15T10:21:49.748Z,51.77
2019-06-15T10:25:57.679Z,51.43
2019-06-15T10:30:07.748Z,51.53
2019-06-15T10:34:14.789Z,52.27
2019-06-15T10:38:22.692Z,52.48
2019-06-15T10:42:29.489Z,51.92
2019-06-15T10:46:42.429Z,52.16
2019-06-15T10:50:49.472Z,52.33
2019-06-15T10:54:56.344Z,49.53
2019-06-15T10:59:03.830Z,50.46
2019-06-15T11:03:11.063Z,49.75
2019-06-15T11:07:18.868Z,50.77
2019-06-15T11:11:25.839Z,51.23
2019-06-15T11:15:33.082Z,52.15
2019-06-15T11:19:42.665Z,52.05
2019-06-15T11:23:49.553Z,50.67
2019-06-15T11:27:57.985Z,46.97
2019-06-15T11:32:05.245Z,48.84
2019-06-15T11:36:11.989Z,48.67
2019-06-15T11:40:21.023Z,45.43
2019-06-15T11:44:30.803Z,42.95
2019-06-15T11:48:37.689Z,41.36
2019-06-15T11:52:50.103Z,42.73
2019-06-15T11:56:56.945Z,43.64
2019-06-15T12:01:03.878Z,43.15
2019-06-15T12:05:10.893Z,43.76
2019-06-15T12:09:18.732Z,43.39
2019-06-15T12:13:25.553Z,44.79
2019-06-15T12:17:32.886Z,44.08
2019-06-15T12:21:39.676Z,44.43
2019-06-15T12:25:47.623Z,41.29
2019-06-15T12:29:54.921Z,42.84
2019-06-15T12:34:02.022Z,41.86
2019-06-15T12:38:11.832Z,42.55
2019-06-15T12:42:18.705Z,43.27
2019-06-15T12:50:49.985Z,42.98
2019-06-15T12:54:58.198Z,43.58
2019-06-15T12:59:04.994Z,43.83
2019-06-15T13:03:12.282Z,43.54
2019-06-15T13:07:19.229Z,42.24
2019-06-15T13:11:26.184Z,42.98
2019-06-15T13:15:33.646Z,42.39
2019-06-15T13:19:40.532Z,43.39
2019-06-15T13:23:47.411Z,42.89
2019-06-15T13:27:54.620Z,44.25
2019-06-15T13:32:01.371Z,44.17
2019-06-15T13:36:08.186Z,44.88
2019-06-15T13:40:15.157Z,45.87
2019-06-15T13:44:22.080Z,46.22
2019-06-15T13:48:28.945Z,44.46
2019-06-15T13:52:35.739Z,42.88
2019-06-15T13:56:42.595Z,45.03
2019-06-15T14:00:49.383Z,43.39
2019-06-15T14:04:57.009Z,42.54
2019-06-15T14:09:05.400Z,42.87
2019-06-15T14:13:12.305Z,42.19
2019-06-15T14:17:19.610Z,42.81
2019-06-15T14:21:26.492Z,42.93
2019-06-15T14:25:33.328Z,43.11
2019-06-15T14:29:40.197Z,44.09
2019-06-15T14:33:46.990Z,44.39
2019-06-15T14:37:53.775Z,45.42
2019-06-15T14:42:00.602Z,45.64
2019-06-15T14:46:07.391Z,46.07
2019-06-15T14:50:14.538Z,45.69
2019-06-15T14:54:21.569Z,44.50
2019-06-15T14:58:28.370Z,44.15
2019-06-15T15:02:37.135Z,42.47
2019-06-15T15:06:44.077Z,42.53
2019-06-15T15:10:51.099Z,41.82
2019-06-15T15:15:00.724Z,41.98
2019-06-15T15:19:07.643Z,42.30
2019-06-15T15:23:15.789Z,43.08
2019-06-15T15:27:27.012Z,43.52
2019-06-15T15:31:36.247Z,43.02
2019-06-15T15:35:43.519Z,43.39
2019-06-15T15:39:50.420Z,41.54
2019-06-15T15:43:57.205Z,41.59
2019-06-15T15:48:06.593Z,39.96
2019-06-15T15:52:12.644Z,39.67
2019-06-15T15:56:19.395Z,41.11
2019-06-15T16:00:32.819Z,41.07
2019-06-15T16:04:39.613Z,41.10
2019-06-15T16:08:47.236Z,41.55
2019-06-15T16:12:56.671Z,41.58
2019-06-15T16:17:02.741Z,41.97
2019-06-15T16:21:09.783Z,42.02
2019-06-15T16:25:17.495Z,41.10
2019-06-15T16:29:24.890Z,40.93
2019-06-15T16:33:31.761Z,40.76
2019-06-15T16:37:38.817Z,41.06
2019-06-15T16:41:47.034Z,40.72
2019-06-15T16:45:57.040Z,40.22
2019-06-15T16:50:06.927Z,41.37
2019-06-15T16:54:16.753Z,40.84
2019-06-15T16:58:26.348Z,39.61
2019-06-15T17:02:32.171Z,40.19
2019-06-15T17:06:40.829Z,39.51
2019-06-15T17:10:47.528Z,39.32
2019-06-15T17:14:55.209Z,40.13
2019-06-15T17:19:02.027Z,41.14
2019-06-15T17:23:08.799Z,41.41
2019-06-15T17:27:17.093Z,41.16
2019-06-15T17:31:24.116Z,42.22
2019-06-15T17:35:30.890Z,41.54
2019-06-15T17:39:37.688Z,42.25
2019-06-15T17:43:47.214Z,43.11
2019-06-15T17:47:52.935Z,41.90
2019-06-15T17:51:59.816Z,42.26
2019-06-15T17:56:07.337Z,42.56
2019-06-15T18:00:16.567Z,42.85
2019-06-15T18:04:23.521Z,43.53
2019-06-15T18:08:30.655Z,43.97
2019-06-15T18:12:38.154Z,43.67
2019-06-15T18:16:47.057Z,43.01
2019-06-15T18:20:53.748Z,43.66
2019-06-15T18:25:02.189Z,44.25
2019-06-15T18:29:09.359Z,44.72
2019-06-15T18:33:16.476Z,45.25
2019-06-15T18:37:25.714Z,45.25
2019-06-15T18:41:40.239Z,45.69
2019-06-15T18:46:22.235Z,46.27
2019-06-15T18:50:37.669Z,46.19
2019-06-15T18:54:51.037Z,46.97
2019-06-15T18:58:57.978Z,46.97
2019-06-15T19:03:26.283Z,46.69
2019-06-15T19:07:43.308Z,47.92
2019-06-15T19:11:56.454Z,47.57
2019-06-15T19:16:03.036Z,48.24
2019-06-15T19:20:12.176Z,48.57
2019-06-15T19:24:21.702Z,49.31
2019-06-15T19:28:27.919Z,49.43
2019-06-15T19:32:37.763Z,49.99
2019-06-15T19:36:47.733Z,50.29
2019-06-15T19:40:56.580Z,51.04
2019-06-15T19:45:07.745Z,51.85
2019-06-15T19:49:17.011Z,51.89
2019-06-15T19:53:23.336Z,52.37
2019-06-15T19:57:30.667Z,53.67
2019-06-15T20:01:37.519Z,53.32
2019-06-15T20:05:46.169Z,53.54
2019-06-15T20:09:53.458Z,53.84
2019-06-15T20:14:24.846Z,54.49
2019-06-15T20:18:34.076Z,54.43
2019-06-15T20:22:41.231Z,55.19
2019-06-15T20:26:48.314Z,55.45
2019-06-15T20:30:57.091Z,57.75
2019-06-15T20:35:16.190Z,56.62
2019-06-15T20:39:12.471Z,56.80
2019-06-15T20:43:24.222Z,57.12
2019-06-15T20:47:30.990Z,56.98
2019-06-15T20:51:41.250Z,57.65
2019-06-15T20:55:49.245Z,57.57
2019-06-15T20:59:56.515Z,58.08
2019-06-15T21:04:07.331Z,58.17
2019-06-15T21:08:15.849Z,58.84
2019-06-15T21:12:23.449Z,59.01
2019-06-15T21:16:32.010Z,59.08
2019-06-15T21:20:38.910Z,59.42
2019-06-15T21:24:46.671Z,59.20
2019-06-15T21:28:53.427Z,59.86
2019-06-15T21:33:00.296Z,60.09
2019-06-15T21:37:08.378Z,60.66
2019-06-15T21:41:16.643Z,60.70
2019-06-15T21:45:23.684Z,60.96
2019-06-15T21:49:30.550Z,60.43
2019-06-15T21:53:37.331Z,60.99
2019-06-15T21:57:44.086Z,61.35
2019-06-15T22:01:50.871Z,60.94
2019-06-15T22:06:03.090Z,60.93
2019-06-15T22:10:09.060Z,60.12
2019-06-15T22:14:17.123Z,61.04
2019-06-15T22:18:27.101Z,61.26
2019-06-15T22:22:32.683Z,62.14
2019-06-15T22:26:39.481Z,61.91
2019-06-15T22:30:46.468Z,62.61
2019-06-15T22:34:53.126Z,62.88
2019-06-15T22:38:59.952Z,63.25
2019-06-15T22:43:07.086Z,63.77
2019-06-15T22:47:16.689Z,63.84
2019-06-15T22:51:22.414Z,63.62
2019-06-15T22:55:29.123Z,63.46
2019-06-15T22:59:35.870Z,63.13
2019-06-15T23:03:42.657Z,62.48
2019-06-15T23:07:49.442Z,62.12
2019-06-15T23:11:57.365Z,62.33
2019-06-15T23:16:04.181Z,61.99
2019-06-15T23:20:11.004Z,61.67
2019-06-15T23:24:17.719Z,61.18
2019-06-15T23:28:26.852Z,61.15
2019-06-15T23:32:32.885Z,60.52
2019-06-15T23:36:54.234Z,60.55
2019-06-15T23:40:50.407Z,60.70
2019-06-15T23:44:57.133Z,60.42
2019-06-15T23:49:03.838Z,60.89
2019-06-15T23:53:10.583Z,60.85
2019-06-15T23:57:17.309Z,61.18
